sensor_id;sensor_type;location;lat;lon;timestamp;P1;durP1;ratioP1;P2;durP2;ratioP2
842;SDS011;407;48.884;9.126;2022-11-11T00:00:34;15.68;;;8.27;;
842;SDS011;407;48.884;9.126;2022-11-11T00:03:01;16.15;;;7.43;;
842;SDS011;407;48.884;9.126;2022-11-11T00:05:27;16.58;;;8.10;;
842;SDS011;407;48.884;9.126;2022-11-11T00:07:53;15.73;;;8.27;;
842;SDS011;407;48.884;9.126;2022-11-11T00:10:23;15.20;;;7.40;;
842;SDS011;407;48.884;9.126;2022-11-11T00:12:53;19.30;;;7.70;;
842;SDS011;407;48.884;9.126;2022-11-11T00:15:21;17.73;;;8.43;;
842;SDS011;407;48.884;9.126;2022-11-11T00:17:47;15.43;;;8.33;;
842;SDS011;407;48.884;9.126;2022-11-11T00:20:31;15.40;;;7.80;;
842;SDS011;407;48.884;9.126;2022-11-11T00:23:19;15.25;;;8.32;;
842;SDS011;407;48.884;9.126;2022-11-11T00:26:05;16.27;;;7.30;;
842;SDS011;407;48.884;9.126;2022-11-11T00:28:31;15.70;;;7.47;;
842;SDS011;407;48.884;9.126;2022-11-11T00:31:03;15.10;;;7.00;;
842;SDS011;407;48.884;9.126;2022-11-11T00:33:30;17.97;;;8.10;;
842;SDS011;407;48.884;9.126;2022-11-11T00:35:56;17.63;;;6.85;;
842;SDS011;407;48.884;9.126;2022-11-11T00:38:22;16.58;;;7.65;;
842;SDS011;407;48.884;9.126;2022-11-11T00:41:06;14.70;;;7.80;;
842;SDS011;407;48.884;9.126;2022-11-11T00:43:32;16.40;;;8.00;;
842;SDS011;407;48.884;9.126;2022-11-11T00:45:58;14.47;;;6.83;;
842;SDS011;407;48.884;9.126;2022-11-11T00:48:42;15.90;;;7.70;;
842;SDS011;407;48.884;9.126;2022-11-11T00:51:26;16.35;;;7.78;;
842;SDS011;407;48.884;9.126;2022-11-11T00:53:52;15.55;;;8.20;;
842;SDS011;407;48.884;9.126;2022-11-11T00:56:19;15.20;;;7.50;;
842;SDS011;407;48.884;9.126;2022-11-11T00:58:45;15.80;;;7.50;;
842;SDS011;407;48.884;9.126;2022-11-11T01:01:11;15.07;;;7.85;;
842;SDS011;407;48.884;9.126;2022-11-11T01:03:37;14.60;;;7.63;;
842;SDS011;407;48.884;9.126;2022-11-11T01:06:03;16.27;;;8.27;;
842;SDS011;407;48.884;9.126;2022-11-11T01:08:29;14.17;;;8.07;;
842;SDS011;407;48.884;9.126;2022-11-11T01:10:56;17.63;;;8.55;;
842;SDS011;407;48.884;9.126;2022-11-11T01:13:23;16.95;;;8.43;;
842;SDS011;407;48.884;9.126;2022-11-11T01:15:53;15.03;;;7.50;;
842;SDS011;407;48.884;9.126;2022-11-11T01:18:24;14.18;;;7.68;;
842;SDS011;407;48.884;9.126;2022-11-11T01:21:00;15.20;;;7.25;;
842;SDS011;407;48.884;9.126;2022-11-11T01:23:30;15.05;;;8.10;;
842;SDS011;407;48.884;9.126;2022-11-11T01:26:04;16.45;;;7.80;;
842;SDS011;407;48.884;9.126;2022-11-11T01:28:44;17.10;;;7.70;;
842;SDS011;407;48.884;9.126;2022-11-11T01:31:13;15.85;;;8.00;;
842;SDS011;407;48.884;9.126;2022-11-11T01:33:39;14.05;;;7.45;;
842;SDS011;407;48.884;9.126;2022-11-11T01:36:07;16.30;;;8.25;;
842;SDS011;407;48.884;9.126;2022-11-11T01:38:42;13.73;;;7.43;;
842;SDS011;407;48.884;9.126;2022-11-11T01:41:09;13.53;;;7.63;;
842;SDS011;407;48.884;9.126;2022-11-11T01:43:56;14.55;;;7.43;;
842;SDS011;407;48.884;9.126;2022-11-11T01:49:08;19.13;;;8.48;;
842;SDS011;407;48.884;9.126;2022-11-11T01:54:16;12.02;;;6.47;;
842;SDS011;407;48.884;9.126;2022-11-11T01:56:47;16.63;;;7.93;;
842;SDS011;407;48.884;9.126;2022-11-11T01:59:15;17.10;;;8.03;;
842;SDS011;407;48.884;9.126;2022-11-11T02:01:42;19.10;;;8.23;;
842;SDS011;407;48.884;9.126;2022-11-11T02:04:08;17.20;;;8.00;;
842;SDS011;407;48.884;9.126;2022-11-11T02:06:54;16.40;;;8.23;;
842;SDS011;407;48.884;9.126;2022-11-11T02:09:23;15.75;;;7.90;;
842;SDS011;407;48.884;9.126;2022-11-11T02:11:50;17.52;;;8.38;;
842;SDS011;407;48.884;9.126;2022-11-11T02:14:40;14.73;;;8.02;;
842;SDS011;407;48.884;9.126;2022-11-11T02:17:09;15.82;;;8.50;;
842;SDS011;407;48.884;9.126;2022-11-11T02:22:07;19.08;;;8.65;;
842;SDS011;407;48.884;9.126;2022-11-11T02:24:40;16.63;;;8.80;;
842;SDS011;407;48.884;9.126;2022-11-11T02:27:07;16.48;;;7.85;;
842;SDS011;407;48.884;9.126;2022-11-11T02:29:36;15.03;;;7.70;;
842;SDS011;407;48.884;9.126;2022-11-11T02:32:03;16.77;;;8.60;;
842;SDS011;407;48.884;9.126;2022-11-11T02:34:30;14.07;;;7.70;;
842;SDS011;407;48.884;9.126;2022-11-11T02:36:57;16.67;;;8.95;;
842;SDS011;407;48.884;9.126;2022-11-11T02:39:24;14.75;;;7.82;;
842;SDS011;407;48.884;9.126;2022-11-11T02:41:51;15.40;;;8.13;;
842;SDS011;407;48.884;9.126;2022-11-11T02:44:23;17.43;;;8.97;;
842;SDS011;407;48.884;9.126;2022-11-11T02:46:50;15.27;;;8.43;;
842;SDS011;407;48.884;9.126;2022-11-11T02:49:16;16.00;;;7.70;;
842;SDS011;407;48.884;9.126;2022-11-11T02:51:41;14.70;;;7.40;;
842;SDS011;407;48.884;9.126;2022-11-11T02:54:07;19.25;;;7.50;;
842;SDS011;407;48.884;9.126;2022-11-11T02:56:32;16.90;;;7.77;;
842;SDS011;407;48.884;9.126;2022-11-11T02:59:17;14.77;;;7.90;;
842;SDS011;407;48.884;9.126;2022-11-11T03:01:43;15.93;;;7.45;;
842;SDS011;407;48.884;9.126;2022-11-11T03:04:09;15.25;;;8.50;;
842;SDS011;407;48.884;9.126;2022-11-11T03:06:35;16.10;;;7.65;;
842;SDS011;407;48.884;9.126;2022-11-11T03:09:01;17.67;;;7.60;;
842;SDS011;407;48.884;9.126;2022-11-11T03:11:26;16.07;;;7.93;;
842;SDS011;407;48.884;9.126;2022-11-11T03:13:55;17.83;;;8.18;;
842;SDS011;407;48.884;9.126;2022-11-11T03:16:22;16.60;;;8.48;;
842;SDS011;407;48.884;9.126;2022-11-11T03:19:06;13.93;;;7.70;;
842;SDS011;407;48.884;9.126;2022-11-11T03:21:32;16.80;;;9.20;;
842;SDS011;407;48.884;9.126;2022-11-11T03:23:57;24.60;;;9.40;;
842;SDS011;407;48.884;9.126;2022-11-11T03:26:23;17.03;;;8.30;;
842;SDS011;407;48.884;9.126;2022-11-11T03:28:48;14.73;;;8.30;;
842;SDS011;407;48.884;9.126;2022-11-11T03:31:14;16.93;;;8.90;;
842;SDS011;407;48.884;9.126;2022-11-11T03:33:40;16.27;;;8.18;;
842;SDS011;407;48.884;9.126;2022-11-11T03:36:06;16.88;;;8.85;;
842;SDS011;407;48.884;9.126;2022-11-11T03:38:32;20.92;;;9.95;;
842;SDS011;407;48.884;9.126;2022-11-11T03:40:57;17.10;;;8.93;;
842;SDS011;407;48.884;9.126;2022-11-11T03:43:23;15.85;;;8.57;;
842;SDS011;407;48.884;9.126;2022-11-11T03:45:51;16.47;;;9.07;;
842;SDS011;407;48.884;9.126;2022-11-11T03:48:18;18.90;;;8.82;;
842;SDS011;407;48.884;9.126;2022-11-11T03:50:48;18.90;;;8.93;;
842;SDS011;407;48.884;9.126;2022-11-11T03:53:14;20.30;;;10.03;;
842;SDS011;407;48.884;9.126;2022-11-11T03:55:41;18.52;;;9.40;;
842;SDS011;407;48.884;9.126;2022-11-11T03:58:07;17.05;;;8.48;;
842;SDS011;407;48.884;9.126;2022-11-11T04:00:33;19.25;;;10.32;;
842;SDS011;407;48.884;9.126;2022-11-11T04:03:03;17.23;;;9.32;;
842;SDS011;407;48.884;9.126;2022-11-11T04:06:07;18.75;;;9.15;;
842;SDS011;407;48.884;9.126;2022-11-11T04:08:52;19.67;;;10.32;;
842;SDS011;407;48.884;9.126;2022-11-11T04:11:37;21.48;;;10.55;;
842;SDS011;407;48.884;9.126;2022-11-11T04:14:10;20.98;;;10.55;;
842;SDS011;407;48.884;9.126;2022-11-11T04:16:55;15.95;;;9.00;;
842;SDS011;407;48.884;9.126;2022-11-11T04:19:21;20.60;;;9.65;;
842;SDS011;407;48.884;9.126;2022-11-11T04:22:06;19.60;;;10.25;;
842;SDS011;407;48.884;9.126;2022-11-11T04:24:32;20.25;;;9.43;;
842;SDS011;407;48.884;9.126;2022-11-11T04:27:30;20.30;;;9.50;;
842;SDS011;407;48.884;9.126;2022-11-11T04:29:55;18.20;;;9.30;;
842;SDS011;407;48.884;9.126;2022-11-11T04:32:21;16.05;;;8.65;;
842;SDS011;407;48.884;9.126;2022-11-11T04:35:07;18.88;;;8.95;;
842;SDS011;407;48.884;9.126;2022-11-11T04:37:35;16.98;;;9.60;;
842;SDS011;407;48.884;9.126;2022-11-11T04:40:08;21.48;;;9.70;;
842;SDS011;407;48.884;9.126;2022-11-11T04:42:52;47.20;;;40.72;;
842;SDS011;407;48.884;9.126;2022-11-11T04:45:18;18.80;;;9.90;;
842;SDS011;407;48.884;9.126;2022-11-11T04:47:58;18.88;;;9.82;;
842;SDS011;407;48.884;9.126;2022-11-11T04:50:41;19.48;;;9.38;;
842;SDS011;407;48.884;9.126;2022-11-11T04:53:08;18.08;;;9.85;;
842;SDS011;407;48.884;9.126;2022-11-11T04:55:38;16.10;;;8.23;;
842;SDS011;407;48.884;9.126;2022-11-11T04:58:25;17.03;;;8.13;;
842;SDS011;407;48.884;9.126;2022-11-11T05:00:52;16.10;;;9.07;;
842;SDS011;407;48.884;9.126;2022-11-11T05:03:18;18.40;;;8.88;;
842;SDS011;407;48.884;9.126;2022-11-11T05:05:49;16.85;;;8.57;;
842;SDS011;407;48.884;9.126;2022-11-11T05:08:37;16.75;;;7.90;;
842;SDS011;407;48.884;9.126;2022-11-11T05:11:32;14.50;;;7.00;;
842;SDS011;407;48.884;9.126;2022-11-11T05:14:00;14.10;;;7.50;;
842;SDS011;407;48.884;9.126;2022-11-11T05:16:53;13.13;;;6.95;;
842;SDS011;407;48.884;9.126;2022-11-11T05:19:38;15.00;;;7.10;;
842;SDS011;407;48.884;9.126;2022-11-11T05:24:56;17.58;;;7.57;;
842;SDS011;407;48.884;9.126;2022-11-11T05:27:40;14.88;;;7.60;;
842;SDS011;407;48.884;9.126;2022-11-11T05:30:07;18.40;;;7.88;;
842;SDS011;407;48.884;9.126;2022-11-11T05:32:35;15.23;;;7.30;;
842;SDS011;407;48.884;9.126;2022-11-11T05:35:01;13.30;;;7.40;;
842;SDS011;407;48.884;9.126;2022-11-11T05:37:27;16.95;;;7.72;;
842;SDS011;407;48.884;9.126;2022-11-11T05:39:53;15.38;;;8.00;;
842;SDS011;407;48.884;9.126;2022-11-11T05:42:19;17.07;;;7.70;;
842;SDS011;407;48.884;9.126;2022-11-11T05:44:44;17.73;;;7.85;;
842;SDS011;407;48.884;9.126;2022-11-11T05:47:10;15.13;;;7.55;;
842;SDS011;407;48.884;9.126;2022-11-11T05:49:36;19.23;;;7.40;;
842;SDS011;407;48.884;9.126;2022-11-11T05:52:02;15.00;;;6.40;;
842;SDS011;407;48.884;9.126;2022-11-11T05:54:28;12.77;;;7.18;;
842;SDS011;407;48.884;9.126;2022-11-11T05:56:53;14.82;;;7.10;;
842;SDS011;407;48.884;9.126;2022-11-11T05:59:19;15.23;;;7.77;;
842;SDS011;407;48.884;9.126;2022-11-11T06:01:44;13.88;;;7.70;;
842;SDS011;407;48.884;9.126;2022-11-11T06:04:11;16.55;;;7.32;;
842;SDS011;407;48.884;9.126;2022-11-11T06:06:36;11.97;;;6.83;;
842;SDS011;407;48.884;9.126;2022-11-11T06:09:02;14.05;;;7.00;;
842;SDS011;407;48.884;9.126;2022-11-11T06:11:29;14.35;;;7.38;;
842;SDS011;407;48.884;9.126;2022-11-11T06:13:55;14.50;;;6.70;;
842;SDS011;407;48.884;9.126;2022-11-11T06:16:21;14.88;;;7.55;;
842;SDS011;407;48.884;9.126;2022-11-11T06:18:47;16.17;;;7.30;;
842;SDS011;407;48.884;9.126;2022-11-11T06:21:14;13.73;;;7.15;;
842;SDS011;407;48.884;9.126;2022-11-11T06:23:39;16.63;;;7.75;;
842;SDS011;407;48.884;9.126;2022-11-11T06:26:05;12.83;;;7.20;;
842;SDS011;407;48.884;9.126;2022-11-11T06:28:40;14.07;;;7.25;;
842;SDS011;407;48.884;9.126;2022-11-11T06:31:17;15.00;;;7.90;;
842;SDS011;407;48.884;9.126;2022-11-11T06:33:44;16.70;;;6.83;;
842;SDS011;407;48.884;9.126;2022-11-11T06:36:11;13.90;;;7.03;;
842;SDS011;407;48.884;9.126;2022-11-11T06:38:41;16.17;;;7.20;;
842;SDS011;407;48.884;9.126;2022-11-11T06:41:07;16.67;;;7.10;;
842;SDS011;407;48.884;9.126;2022-11-11T06:43:34;13.17;;;7.00;;
842;SDS011;407;48.884;9.126;2022-11-11T06:45:59;16.02;;;7.63;;
842;SDS011;407;48.884;9.126;2022-11-11T06:48:26;16.13;;;7.28;;
842;SDS011;407;48.884;9.126;2022-11-11T06:50:53;13.35;;;6.70;;
842;SDS011;407;48.884;9.126;2022-11-11T06:53:19;13.68;;;6.60;;
842;SDS011;407;48.884;9.126;2022-11-11T06:55:46;15.30;;;7.07;;
842;SDS011;407;48.884;9.126;2022-11-11T06:58:15;13.82;;;6.40;;
842;SDS011;407;48.884;9.126;2022-11-11T07:00:43;12.82;;;6.40;;
842;SDS011;407;48.884;9.126;2022-11-11T07:03:10;13.23;;;6.20;;
842;SDS011;407;48.884;9.126;2022-11-11T07:05:38;16.05;;;6.57;;
842;SDS011;407;48.884;9.126;2022-11-11T07:08:06;14.15;;;7.20;;
842;SDS011;407;48.884;9.126;2022-11-11T07:10:36;12.18;;;7.30;;
842;SDS011;407;48.884;9.126;2022-11-11T07:13:03;12.10;;;6.80;;
842;SDS011;407;48.884;9.126;2022-11-11T07:15:30;13.55;;;6.70;;
842;SDS011;407;48.884;9.126;2022-11-11T07:17:56;13.80;;;6.60;;
842;SDS011;407;48.884;9.126;2022-11-11T07:20:22;13.85;;;6.22;;
842;SDS011;407;48.884;9.126;2022-11-11T07:22:47;11.93;;;6.00;;
842;SDS011;407;48.884;9.126;2022-11-11T07:25:13;13.25;;;5.45;;
842;SDS011;407;48.884;9.126;2022-11-11T07:27:39;13.60;;;5.90;;
842;SDS011;407;48.884;9.126;2022-11-11T07:30:05;13.82;;;6.75;;
842;SDS011;407;48.884;9.126;2022-11-11T07:32:32;12.80;;;5.80;;
842;SDS011;407;48.884;9.126;2022-11-11T07:34:58;12.63;;;6.30;;
842;SDS011;407;48.884;9.126;2022-11-11T07:37:23;12.40;;;6.35;;
842;SDS011;407;48.884;9.126;2022-11-11T07:39:49;12.23;;;6.57;;
842;SDS011;407;48.884;9.126;2022-11-11T07:42:15;10.68;;;5.90;;
842;SDS011;407;48.884;9.126;2022-11-11T07:44:40;12.40;;;5.70;;
842;SDS011;407;48.884;9.126;2022-11-11T07:47:06;11.45;;;5.88;;
842;SDS011;407;48.884;9.126;2022-11-11T07:49:32;11.10;;;5.77;;
842;SDS011;407;48.884;9.126;2022-11-11T07:51:58;10.95;;;5.25;;
842;SDS011;407;48.884;9.126;2022-11-11T07:54:23;12.43;;;6.25;;
842;SDS011;407;48.884;9.126;2022-11-11T07:56:49;12.57;;;5.87;;
842;SDS011;407;48.884;9.126;2022-11-11T07:59:15;11.75;;;5.65;;
842;SDS011;407;48.884;9.126;2022-11-11T08:01:41;15.18;;;6.35;;
842;SDS011;407;48.884;9.126;2022-11-11T08:04:06;10.77;;;5.37;;
842;SDS011;407;48.884;9.126;2022-11-11T08:06:32;11.50;;;6.20;;
842;SDS011;407;48.884;9.126;2022-11-11T08:08:58;11.03;;;5.70;;
842;SDS011;407;48.884;9.126;2022-11-11T08:11:23;14.17;;;6.07;;
842;SDS011;407;48.884;9.126;2022-11-11T08:14:08;10.73;;;5.63;;
842;SDS011;407;48.884;9.126;2022-11-11T08:16:33;11.68;;;5.57;;
842;SDS011;407;48.884;9.126;2022-11-11T08:18:59;10.40;;;5.43;;
842;SDS011;407;48.884;9.126;2022-11-11T08:21:25;11.43;;;5.60;;
842;SDS011;407;48.884;9.126;2022-11-11T08:23:51;11.70;;;5.70;;
842;SDS011;407;48.884;9.126;2022-11-11T08:26:18;12.32;;;5.30;;
842;SDS011;407;48.884;9.126;2022-11-11T08:28:45;10.80;;;5.30;;
842;SDS011;407;48.884;9.126;2022-11-11T08:31:11;13.47;;;6.40;;
842;SDS011;407;48.884;9.126;2022-11-11T08:33:36;13.20;;;6.43;;
842;SDS011;407;48.884;9.126;2022-11-11T08:36:02;11.63;;;5.57;;
842;SDS011;407;48.884;9.126;2022-11-11T08:38:29;9.70;;;4.80;;
842;SDS011;407;48.884;9.126;2022-11-11T08:40:58;10.55;;;5.10;;
842;SDS011;407;48.884;9.126;2022-11-11T08:43:24;10.93;;;5.60;;
842;SDS011;407;48.884;9.126;2022-11-11T08:45:53;12.87;;;6.00;;
842;SDS011;407;48.884;9.126;2022-11-11T08:48:19;12.45;;;6.00;;
842;SDS011;407;48.884;9.126;2022-11-11T08:50:45;17.67;;;7.10;;
842;SDS011;407;48.884;9.126;2022-11-11T08:53:10;11.25;;;5.75;;
842;SDS011;407;48.884;9.126;2022-11-11T08:55:36;11.70;;;5.50;;
842;SDS011;407;48.884;9.126;2022-11-11T08:58:03;18.38;;;6.00;;
842;SDS011;407;48.884;9.126;2022-11-11T09:00:30;12.75;;;6.22;;
842;SDS011;407;48.884;9.126;2022-11-11T09:03:04;11.90;;;5.80;;
842;SDS011;407;48.884;9.126;2022-11-11T09:05:30;9.73;;;4.50;;
842;SDS011;407;48.884;9.126;2022-11-11T09:07:59;10.98;;;5.00;;
842;SDS011;407;48.884;9.126;2022-11-11T09:10:25;9.30;;;5.22;;
842;SDS011;407;48.884;9.126;2022-11-11T09:12:54;11.33;;;5.67;;
842;SDS011;407;48.884;9.126;2022-11-11T09:15:21;11.50;;;6.53;;
842;SDS011;407;48.884;9.126;2022-11-11T09:17:46;13.90;;;5.63;;
842;SDS011;407;48.884;9.126;2022-11-11T09:20:12;11.00;;;5.60;;
842;SDS011;407;48.884;9.126;2022-11-11T09:22:42;11.60;;;5.50;;
842;SDS011;407;48.884;9.126;2022-11-11T09:25:08;12.48;;;5.53;;
842;SDS011;407;48.884;9.126;2022-11-11T09:27:34;13.48;;;5.80;;
842;SDS011;407;48.884;9.126;2022-11-11T09:29:59;12.60;;;5.93;;
842;SDS011;407;48.884;9.126;2022-11-11T09:32:25;12.70;;;5.50;;
842;SDS011;407;48.884;9.126;2022-11-11T09:34:51;15.07;;;6.20;;
842;SDS011;407;48.884;9.126;2022-11-11T09:37:19;13.50;;;5.57;;
842;SDS011;407;48.884;9.126;2022-11-11T09:39:44;16.17;;;6.10;;
842;SDS011;407;48.884;9.126;2022-11-11T09:45:19;10.77;;;5.57;;
842;SDS011;407;48.884;9.126;2022-11-11T09:47:59;11.55;;;5.90;;
842;SDS011;407;48.884;9.126;2022-11-11T09:50:46;14.77;;;6.60;;
842;SDS011;407;48.884;9.126;2022-11-11T09:53:28;9.50;;;5.10;;
842;SDS011;407;48.884;9.126;2022-11-11T09:58:41;11.90;;;5.60;;
842;SDS011;407;48.884;9.126;2022-11-11T10:01:15;12.70;;;6.18;;
842;SDS011;407;48.884;9.126;2022-11-11T10:03:53;15.65;;;6.32;;
842;SDS011;407;48.884;9.126;2022-11-11T10:06:27;10.55;;;5.60;;
842;SDS011;407;48.884;9.126;2022-11-11T10:08:59;12.85;;;6.47;;
842;SDS011;407;48.884;9.126;2022-11-11T10:14:08;12.33;;;6.23;;
842;SDS011;407;48.884;9.126;2022-11-11T10:19:28;10.15;;;5.80;;
842;SDS011;407;48.884;9.126;2022-11-11T10:21:58;12.25;;;5.80;;
842;SDS011;407;48.884;9.126;2022-11-11T10:24:31;12.13;;;5.57;;
842;SDS011;407;48.884;9.126;2022-11-11T10:27:00;10.00;;;5.10;;
842;SDS011;407;48.884;9.126;2022-11-11T10:29:30;11.13;;;5.50;;
842;SDS011;407;48.884;9.126;2022-11-11T10:32:18;10.90;;;5.45;;
842;SDS011;407;48.884;9.126;2022-11-11T10:34:47;14.05;;;6.13;;
842;SDS011;407;48.884;9.126;2022-11-11T10:37:17;13.40;;;6.20;;
842;SDS011;407;48.884;9.126;2022-11-11T10:42:22;11.18;;;5.90;;
842;SDS011;407;48.884;9.126;2022-11-11T10:44:48;12.17;;;5.70;;
842;SDS011;407;48.884;9.126;2022-11-11T10:47:27;9.82;;;5.20;;
842;SDS011;407;48.884;9.126;2022-11-11T10:50:14;12.57;;;5.50;;
842;SDS011;407;48.884;9.126;2022-11-11T10:55:41;10.40;;;4.47;;
842;SDS011;407;48.884;9.126;2022-11-11T10:58:27;10.52;;;5.40;;
842;SDS011;407;48.884;9.126;2022-11-11T11:01:00;10.48;;;5.25;;
842;SDS011;407;48.884;9.126;2022-11-11T11:03:31;11.85;;;5.28;;
842;SDS011;407;48.884;9.126;2022-11-11T11:06:02;11.93;;;4.70;;
842;SDS011;407;48.884;9.126;2022-11-11T11:08:34;12.77;;;5.20;;
842;SDS011;407;48.884;9.126;2022-11-11T11:11:09;10.27;;;5.33;;
842;SDS011;407;48.884;9.126;2022-11-11T11:13:50;10.57;;;5.18;;
842;SDS011;407;48.884;9.126;2022-11-11T11:16:21;12.63;;;5.50;;
842;SDS011;407;48.884;9.126;2022-11-11T11:21:56;11.80;;;5.30;;
842;SDS011;407;48.884;9.126;2022-11-11T11:26:52;13.70;;;5.60;;
842;SDS011;407;48.884;9.126;2022-11-11T11:29:36;10.25;;;4.90;;
842;SDS011;407;48.884;9.126;2022-11-11T11:32:16;11.75;;;5.20;;
842;SDS011;407;48.884;9.126;2022-11-11T11:34:53;11.40;;;4.75;;
842;SDS011;407;48.884;9.126;2022-11-11T11:37:20;12.90;;;5.78;;
842;SDS011;407;48.884;9.126;2022-11-11T11:39:48;12.68;;;4.90;;
842;SDS011;407;48.884;9.126;2022-11-11T11:42:33;13.05;;;5.40;;
842;SDS011;407;48.884;9.126;2022-11-11T11:50:38;10.82;;;4.93;;
842;SDS011;407;48.884;9.126;2022-11-11T11:56:06;11.23;;;5.25;;
842;SDS011;407;48.884;9.126;2022-11-11T12:28:55;10.13;;;5.10;;
842;SDS011;407;48.884;9.126;2022-11-11T12:36:41;10.20;;;4.50;;
842;SDS011;407;48.884;9.126;2022-11-11T12:42:34;10.77;;;4.80;;
842;SDS011;407;48.884;9.126;2022-11-11T12:47:57;11.82;;;5.50;;
842;SDS011;407;48.884;9.126;2022-11-11T12:50:45;11.90;;;5.05;;
842;SDS011;407;48.884;9.126;2022-11-11T12:53:26;10.57;;;4.60;;
842;SDS011;407;48.884;9.126;2022-11-11T12:58:59;9.00;;;3.85;;
842;SDS011;407;48.884;9.126;2022-11-11T13:04:37;9.50;;;3.60;;
842;SDS011;407;48.884;9.126;2022-11-11T13:07:35;10.48;;;4.05;;
842;SDS011;407;48.884;9.126;2022-11-11T13:16:15;10.48;;;4.97;;
842;SDS011;407;48.884;9.126;2022-11-11T13:18:59;9.13;;;4.40;;
842;SDS011;407;48.884;9.126;2022-11-11T13:24:33;9.40;;;4.50;;
842;SDS011;407;48.884;9.126;2022-11-11T13:27:00;12.27;;;4.27;;
842;SDS011;407;48.884;9.126;2022-11-11T13:29:46;10.20;;;4.07;;
842;SDS011;407;48.884;9.126;2022-11-11T13:37:53;7.90;;;3.70;;
842;SDS011;407;48.884;9.126;2022-11-11T13:40:31;10.00;;;4.00;;
842;SDS011;407;48.884;9.126;2022-11-11T13:43:03;8.43;;;3.50;;
842;SDS011;407;48.884;9.126;2022-11-11T13:45:39;11.40;;;3.67;;
842;SDS011;407;48.884;9.126;2022-11-11T13:48:14;9.48;;;3.63;;
842;SDS011;407;48.884;9.126;2022-11-11T13:50:47;8.70;;;3.60;;
842;SDS011;407;48.884;9.126;2022-11-11T13:55:52;10.02;;;4.28;;
842;SDS011;407;48.884;9.126;2022-11-11T13:58:27;11.50;;;4.28;;
842;SDS011;407;48.884;9.126;2022-11-11T14:01:00;9.70;;;4.30;;
842;SDS011;407;48.884;9.126;2022-11-11T14:03:30;10.77;;;4.10;;
842;SDS011;407;48.884;9.126;2022-11-11T14:13:52;12.25;;;5.10;;
842;SDS011;407;48.884;9.126;2022-11-11T14:24:47;14.25;;;5.85;;
842;SDS011;407;48.884;9.126;2022-11-11T14:27:14;14.07;;;7.15;;
842;SDS011;407;48.884;9.126;2022-11-11T14:29:50;16.55;;;7.30;;
842;SDS011;407;48.884;9.126;2022-11-11T14:40:25;10.15;;;4.05;;
842;SDS011;407;48.884;9.126;2022-11-11T14:42:56;10.38;;;4.05;;
842;SDS011;407;48.884;9.126;2022-11-11T14:47:49;10.00;;;4.40;;
842;SDS011;407;48.884;9.126;2022-11-11T14:53:14;9.80;;;3.70;;
842;SDS011;407;48.884;9.126;2022-11-11T14:55:43;8.57;;;3.63;;
842;SDS011;407;48.884;9.126;2022-11-11T14:58:17;9.30;;;3.57;;
842;SDS011;407;48.884;9.126;2022-11-11T15:01:11;8.90;;;3.10;;
842;SDS011;407;48.884;9.126;2022-11-11T15:03:42;8.88;;;3.67;;
842;SDS011;407;48.884;9.126;2022-11-11T15:23:01;11.85;;;4.10;;
842;SDS011;407;48.884;9.126;2022-11-11T15:31:22;9.95;;;3.20;;
842;SDS011;407;48.884;9.126;2022-11-11T15:38:58;9.10;;;3.57;;
842;SDS011;407;48.884;9.126;2022-11-11T15:41:28;10.40;;;4.00;;
842;SDS011;407;48.884;9.126;2022-11-11T15:44:08;9.85;;;3.40;;
842;SDS011;407;48.884;9.126;2022-11-11T15:46:54;9.88;;;3.40;;
842;SDS011;407;48.884;9.126;2022-11-11T15:54:48;16.30;;;5.38;;
842;SDS011;407;48.884;9.126;2022-11-11T15:57:15;11.93;;;4.97;;
842;SDS011;407;48.884;9.126;2022-11-11T15:59:53;9.07;;;3.83;;
842;SDS011;407;48.884;9.126;2022-11-11T16:02:20;10.40;;;3.92;;
842;SDS011;407;48.884;9.126;2022-11-11T16:04:53;14.35;;;3.97;;
842;SDS011;407;48.884;9.126;2022-11-11T16:07:23;12.90;;;4.77;;
842;SDS011;407;48.884;9.126;2022-11-11T16:09:53;11.80;;;5.30;;
842;SDS011;407;48.884;9.126;2022-11-11T16:12:27;11.88;;;4.50;;
842;SDS011;407;48.884;9.126;2022-11-11T16:15:01;12.30;;;3.95;;
842;SDS011;407;48.884;9.126;2022-11-11T16:17:33;10.00;;;3.80;;
842;SDS011;407;48.884;9.126;2022-11-11T16:20:04;10.07;;;3.95;;
842;SDS011;407;48.884;9.126;2022-11-11T16:22:36;9.57;;;3.83;;
842;SDS011;407;48.884;9.126;2022-11-11T16:25:03;8.60;;;3.50;;
842;SDS011;407;48.884;9.126;2022-11-11T16:27:30;7.75;;;3.30;;
842;SDS011;407;48.884;9.126;2022-11-11T16:33:02;8.93;;;4.05;;
842;SDS011;407;48.884;9.126;2022-11-11T16:38:00;10.27;;;4.47;;
842;SDS011;407;48.884;9.126;2022-11-11T16:46:14;14.57;;;6.30;;
842;SDS011;407;48.884;9.126;2022-11-11T16:48:49;11.03;;;4.40;;
842;SDS011;407;48.884;9.126;2022-11-11T16:51:58;9.95;;;4.85;;
842;SDS011;407;48.884;9.126;2022-11-11T16:54:14;11.18;;;4.50;;
842;SDS011;407;48.884;9.126;2022-11-11T16:56:45;12.93;;;5.43;;
842;SDS011;407;48.884;9.126;2022-11-11T16:59:16;12.63;;;6.10;;
842;SDS011;407;48.884;9.126;2022-11-11T17:01:46;12.75;;;6.53;;
842;SDS011;407;48.884;9.126;2022-11-11T17:04:13;13.45;;;6.65;;
842;SDS011;407;48.884;9.126;2022-11-11T17:09:32;16.45;;;5.93;;
842;SDS011;407;48.884;9.126;2022-11-11T17:12:03;14.33;;;6.70;;
842;SDS011;407;48.884;9.126;2022-11-11T17:14:30;17.17;;;7.30;;
842;SDS011;407;48.884;9.126;2022-11-11T17:16:58;12.85;;;6.50;;
842;SDS011;407;48.884;9.126;2022-11-11T17:19:24;19.37;;;7.80;;
842;SDS011;407;48.884;9.126;2022-11-11T17:21:50;17.70;;;7.15;;
842;SDS011;407;48.884;9.126;2022-11-11T17:24:15;14.50;;;6.60;;
842;SDS011;407;48.884;9.126;2022-11-11T17:26:41;14.57;;;7.22;;
842;SDS011;407;48.884;9.126;2022-11-11T17:29:07;17.10;;;8.57;;
842;SDS011;407;48.884;9.126;2022-11-11T17:31:34;17.80;;;8.70;;
842;SDS011;407;48.884;9.126;2022-11-11T17:34:05;15.05;;;7.70;;
842;SDS011;407;48.884;9.126;2022-11-11T17:36:32;16.73;;;8.43;;
842;SDS011;407;48.884;9.126;2022-11-11T17:38:58;13.83;;;7.80;;
842;SDS011;407;48.884;9.126;2022-11-11T17:41:23;17.65;;;7.95;;
842;SDS011;407;48.884;9.126;2022-11-11T17:43:49;14.97;;;7.40;;
842;SDS011;407;48.884;9.126;2022-11-11T17:46:14;17.83;;;8.63;;
842;SDS011;407;48.884;9.126;2022-11-11T17:48:40;19.53;;;9.50;;
842;SDS011;407;48.884;9.126;2022-11-11T17:51:05;23.77;;;10.17;;
842;SDS011;407;48.884;9.126;2022-11-11T17:53:32;36.92;;;18.27;;
842;SDS011;407;48.884;9.126;2022-11-11T17:55:59;20.00;;;9.88;;
842;SDS011;407;48.884;9.126;2022-11-11T17:58:25;17.33;;;8.90;;
842;SDS011;407;48.884;9.126;2022-11-11T18:00:51;16.13;;;8.00;;
842;SDS011;407;48.884;9.126;2022-11-11T18:03:18;14.27;;;8.13;;
842;SDS011;407;48.884;9.126;2022-11-11T18:05:44;17.73;;;7.93;;
842;SDS011;407;48.884;9.126;2022-11-11T18:08:09;18.83;;;8.30;;
842;SDS011;407;48.884;9.126;2022-11-11T18:10:35;17.83;;;8.10;;
842;SDS011;407;48.884;9.126;2022-11-11T18:13:00;17.52;;;8.65;;
842;SDS011;407;48.884;9.126;2022-11-11T18:15:26;19.47;;;9.10;;
842;SDS011;407;48.884;9.126;2022-11-11T18:17:52;15.67;;;7.37;;
842;SDS011;407;48.884;9.126;2022-11-11T18:20:17;15.23;;;7.47;;
842;SDS011;407;48.884;9.126;2022-11-11T18:22:43;14.27;;;7.70;;
842;SDS011;407;48.884;9.126;2022-11-11T18:25:08;17.25;;;7.55;;
842;SDS011;407;48.884;9.126;2022-11-11T18:27:34;15.57;;;8.07;;
842;SDS011;407;48.884;9.126;2022-11-11T18:30:00;15.65;;;7.45;;
842;SDS011;407;48.884;9.126;2022-11-11T18:32:25;15.33;;;8.10;;
842;SDS011;407;48.884;9.126;2022-11-11T18:34:51;13.80;;;7.22;;
842;SDS011;407;48.884;9.126;2022-11-11T18:37:16;14.97;;;7.30;;
842;SDS011;407;48.884;9.126;2022-11-11T18:39:42;17.27;;;7.13;;
842;SDS011;407;48.884;9.126;2022-11-11T18:42:08;13.95;;;6.78;;
842;SDS011;407;48.884;9.126;2022-11-11T18:44:33;16.17;;;7.80;;
842;SDS011;407;48.884;9.126;2022-11-11T18:46:59;17.77;;;8.00;;
842;SDS011;407;48.884;9.126;2022-11-11T18:49:24;14.23;;;7.93;;
842;SDS011;407;48.884;9.126;2022-11-11T18:51:50;15.43;;;7.23;;